sensor_id;sensor_type;location;lat;lon;timestamp;pressure;altitude;pressure_sealevel;temperature;humidity
64792;BME280;51226;47.504;19.074;2024-03-17T00:01:38;100461.47;;;15.29;54.87
64792;BME280;51226;47.504;19.074;2024-03-17T00:04:43;100457.87;;;15.25;55.23
64792;BME280;51226;47.504;19.074;2024-03-17T00:07:44;100457.44;;;15.04;55.81
64792;BME280;51226;47.504;19.074;2024-03-17T00:10:49;100454.94;;;15.10;55.59
64792;BME280;51226;47.504;19.074;2024-03-17T00:13:51;100459.47;;;15.17;55.29
64792;BME280;51226;47.504;19.074;2024-03-17T00:16:53;100457.16;;;14.91;56.17
64792;BME280;51226;47.504;19.074;2024-03-17T00:19:54;100461.72;;;14.98;56.02
64792;BME280;51226;47.504;19.074;2024-03-17T00:22:56;100465.16;;;14.96;56.04
64792;BME280;51226;47.504;19.074;2024-03-17T00:25:58;100465.00;;;14.90;56.29
64792;BME280;51226;47.504;19.074;2024-03-17T00:29:00;100463.31;;;14.92;56.22
64792;BME280;51226;47.504;19.074;2024-03-17T00:32:01;100462.72;;;15.07;55.69
64792;BME280;51226;47.504;19.074;2024-03-17T00:35:04;100455.72;;;15.06;55.65
64792;BME280;51226;47.504;19.074;2024-03-17T00:38:06;100461.97;;;15.11;55.50
64792;BME280;51226;47.504;19.074;2024-03-17T00:41:12;100460.19;;;15.10;55.46
64792;BME280;51226;47.504;19.074;2024-03-17T00:44:13;100466.00;;;14.95;55.95
64792;BME280;51226;47.504;19.074;2024-03-17T00:47:15;100471.75;;;14.77;56.52
64792;BME280;51226;47.504;19.074;2024-03-17T00:50:17;100463.13;;;14.82;56.33
64792;BME280;51226;47.504;19.074;2024-03-17T00:53:19;100471.22;;;14.92;56.21
64792;BME280;51226;47.504;19.074;2024-03-17T00:56:20;100470.03;;;14.79;56.45
64792;BME280;51226;47.504;19.074;2024-03-17T00:59:22;100466.41;;;14.72;56.77
64792;BME280;51226;47.504;19.074;2024-03-17T01:02:24;100470.19;;;14.85;56.30
64792;BME280;51226;47.504;19.074;2024-03-17T01:05:27;100463.59;;;15.06;55.45
64792;BME280;51226;47.504;19.074;2024-03-17T01:08:28;100471.00;;;14.82;55.97
64792;BME280;51226;47.504;19.074;2024-03-17T01:11:31;100468.91;;;14.68;56.36
64792;BME280;51226;47.504;19.074;2024-03-17T01:14:32;100468.16;;;14.73;56.39
64792;BME280;51226;47.504;19.074;2024-03-17T01:17:35;100473.94;;;14.58;56.96
64792;BME280;51226;47.504;19.074;2024-03-17T01:20:36;100473.47;;;14.40;57.48
64792;BME280;51226;47.504;19.074;2024-03-17T01:23:41;100467.37;;;14.41;57.31
64792;BME280;51226;47.504;19.074;2024-03-17T01:26:43;100471.13;;;14.51;57.17
64792;BME280;51226;47.504;19.074;2024-03-17T01:29:45;100467.31;;;14.38;57.46
64792;BME280;51226;47.504;19.074;2024-03-17T01:32:47;100461.94;;;14.32;57.62
64792;BME280;51226;47.504;19.074;2024-03-17T01:35:49;100465.28;;;14.26;57.91
64792;BME280;51226;47.504;19.074;2024-03-17T01:38:50;100455.19;;;14.43;57.27
64792;BME280;51226;47.504;19.074;2024-03-17T01:41:52;100463.72;;;14.34;57.47
64792;BME280;51226;47.504;19.074;2024-03-17T01:44:54;100456.69;;;14.32;57.60
64792;BME280;51226;47.504;19.074;2024-03-17T01:47:56;100449.38;;;14.20;58.02
64792;BME280;51226;47.504;19.074;2024-03-17T01:51:01;100453.87;;;14.24;57.86
64792;BME280;51226;47.504;19.074;2024-03-17T01:54:03;100453.94;;;14.27;57.54
64792;BME280;51226;47.504;19.074;2024-03-17T01:57:05;100453.84;;;14.22;57.86
64792;BME280;51226;47.504;19.074;2024-03-17T02:00:07;100455.47;;;14.17;58.12
64792;BME280;51226;47.504;19.074;2024-03-17T02:03:10;100450.81;;;14.05;58.36
64792;BME280;51226;47.504;19.074;2024-03-17T02:06:12;100461.44;;;14.12;58.16
64792;BME280;51226;47.504;19.074;2024-03-17T02:09:14;100462.91;;;14.00;58.67
64792;BME280;51226;47.504;19.074;2024-03-17T02:12:15;100476.78;;;13.96;59.01
64792;BME280;51226;47.504;19.074;2024-03-17T02:15:17;100476.69;;;13.93;59.05
64792;BME280;51226;47.504;19.074;2024-03-17T02:18:19;100476.06;;;14.02;58.86
64792;BME280;51226;47.504;19.074;2024-03-17T02:21:21;100470.47;;;13.89;59.22
64792;BME280;51226;47.504;19.074;2024-03-17T02:24:24;100482.06;;;13.98;59.10
64792;BME280;51226;47.504;19.074;2024-03-17T02:27:27;100486.22;;;13.89;59.28
64792;BME280;51226;47.504;19.074;2024-03-17T02:30:29;100483.47;;;13.83;59.64
64792;BME280;51226;47.504;19.074;2024-03-17T02:33:31;100496.25;;;14.06;58.87
64792;BME280;51226;47.504;19.074;2024-03-17T02:36:33;100492.56;;;13.98;58.99
64792;BME280;51226;47.504;19.074;2024-03-17T02:39:35;100491.34;;;14.18;58.49
64792;BME280;51226;47.504;19.074;2024-03-17T02:42:37;100494.87;;;14.20;58.23
64792;BME280;51226;47.504;19.074;2024-03-17T02:45:43;100506.28;;;14.22;58.18
64792;BME280;51226;47.504;19.074;2024-03-17T02:48:46;100503.56;;;13.84;59.38
64792;BME280;51226;47.504;19.074;2024-03-17T02:51:51;100510.91;;;13.98;59.30
64792;BME280;51226;47.504;19.074;2024-03-17T02:54:53;100496.53;;;13.82;59.77
64792;BME280;51226;47.504;19.074;2024-03-17T02:57:54;100501.28;;;13.63;60.30
64792;BME280;51226;47.504;19.074;2024-03-17T03:00:56;100502.56;;;13.79;59.96
64792;BME280;51226;47.504;19.074;2024-03-17T03:03:58;100491.06;;;13.74;60.20
64792;BME280;51226;47.504;19.074;2024-03-17T03:07:00;100489.25;;;13.71;60.12
64792;BME280;51226;47.504;19.074;2024-03-17T03:10:02;100489.66;;;13.53;60.66
64792;BME280;51226;47.504;19.074;2024-03-17T03:13:04;100493.09;;;13.52;60.69
64792;BME280;51226;47.504;19.074;2024-03-17T03:16:06;100489.47;;;13.47;60.75
64792;BME280;51226;47.504;19.074;2024-03-17T03:19:10;100498.16;;;13.46;60.69
64792;BME280;51226;47.504;19.074;2024-03-17T03:22:11;100504.94;;;13.38;60.95
64792;BME280;51226;47.504;19.074;2024-03-17T03:25:13;100504.44;;;13.51;60.41
64792;BME280;51226;47.504;19.074;2024-03-17T03:28:15;100508.81;;;13.52;59.95
64792;BME280;51226;47.504;19.074;2024-03-17T03:31:17;100515.66;;;13.47;59.49
64792;BME280;51226;47.504;19.074;2024-03-17T03:34:19;100516.22;;;13.36;59.56
64792;BME280;51226;47.504;19.074;2024-03-17T03:37:20;100515.41;;;13.38;59.38
64792;BME280;51226;47.504;19.074;2024-03-17T03:40:22;100510.75;;;13.29;59.67
64792;BME280;51226;47.504;19.074;2024-03-17T03:43:24;100517.50;;;13.21;59.81
64792;BME280;51226;47.504;19.074;2024-03-17T03:46:29;100515.44;;;13.11;60.29
64792;BME280;51226;47.504;19.074;2024-03-17T03:49:32;100520.84;;;13.15;59.75
64792;BME280;51226;47.504;19.074;2024-03-17T03:52:38;100534.94;;;13.21;59.61
64792;BME280;51226;47.504;19.074;2024-03-17T03:55:39;100543.09;;;13.01;60.02
64792;BME280;51226;47.504;19.074;2024-03-17T03:58:42;100542.34;;;13.05;59.95
64792;BME280;51226;47.504;19.074;2024-03-17T04:01:44;100562.87;;;12.91;60.25
64792;BME280;51226;47.504;19.074;2024-03-17T04:04:46;100554.50;;;13.03;59.85
64792;BME280;51226;47.504;19.074;2024-03-17T04:07:47;100574.03;;;13.14;59.18
64792;BME280;51226;47.504;19.074;2024-03-17T04:10:50;100574.66;;;13.06;59.56
64792;BME280;51226;47.504;19.074;2024-03-17T04:13:53;100568.13;;;12.93;59.91
64792;BME280;51226;47.504;19.074;2024-03-17T04:16:55;100573.56;;;12.99;59.64
64792;BME280;51226;47.504;19.074;2024-03-17T04:19:56;100574.44;;;13.00;59.47
64792;BME280;51226;47.504;19.074;2024-03-17T04:22:58;100571.25;;;12.81;59.67
64792;BME280;51226;47.504;19.074;2024-03-17T04:26:01;100575.34;;;13.00;58.10
64792;BME280;51226;47.504;19.074;2024-03-17T04:29:04;100588.31;;;12.68;59.07
64792;BME280;51226;47.504;19.074;2024-03-17T04:32:07;100582.47;;;12.77;57.92
64792;BME280;51226;47.504;19.074;2024-03-17T04:35:09;100589.41;;;12.75;57.14
64792;BME280;51226;47.504;19.074;2024-03-17T04:38:11;100602.00;;;12.61;57.17
64792;BME280;51226;47.504;19.074;2024-03-17T04:41:14;100580.16;;;12.59;56.53
64792;BME280;51226;47.504;19.074;2024-03-17T04:44:18;100579.50;;;12.66;54.50
64792;BME280;51226;47.504;19.074;2024-03-17T04:47:20;100580.47;;;12.42;55.15
64792;BME280;51226;47.504;19.074;2024-03-17T04:50:21;100579.25;;;12.33;55.27
64792;BME280;51226;47.504;19.074;2024-03-17T04:53:23;100590.00;;;12.40;54.47
64792;BME280;51226;47.504;19.074;2024-03-17T04:56:25;100597.72;;;12.37;54.20
64792;BME280;51226;47.504;19.074;2024-03-17T04:59:27;100597.94;;;12.44;53.81
64792;BME280;51226;47.504;19.074;2024-03-17T05:02:29;100596.22;;;12.44;53.80
64792;BME280;51226;47.504;19.074;2024-03-17T05:05:34;100598.94;;;12.47;54.10
64792;BME280;51226;47.504;19.074;2024-03-17T05:08:36;100599.31;;;12.32;55.05
64792;BME280;51226;47.504;19.074;2024-03-17T05:11:37;100594.66;;;12.23;55.62
64792;BME280;51226;47.504;19.074;2024-03-17T05:14:39;100612.16;;;12.26;55.64
64792;BME280;51226;47.504;19.074;2024-03-17T05:17:41;100604.38;;;12.28;55.87
64792;BME280;51226;47.504;19.074;2024-03-17T05:20:44;100612.16;;;12.26;55.76
64792;BME280;51226;47.504;19.074;2024-03-17T05:23:46;100613.06;;;12.27;55.43
64792;BME280;51226;47.504;19.074;2024-03-17T05:26:47;100610.34;;;12.23;55.50
64792;BME280;51226;47.504;19.074;2024-03-17T05:29:49;100603.97;;;12.41;53.84
64792;BME280;51226;47.504;19.074;2024-03-17T05:32:52;100622.22;;;12.39;53.11
64792;BME280;51226;47.504;19.074;2024-03-17T05:35:55;100634.72;;;12.22;53.17
64792;BME280;51226;47.504;19.074;2024-03-17T05:38:57;100624.59;;;12.08;53.48
64792;BME280;51226;47.504;19.074;2024-03-17T05:41:59;100636.16;;;12.14;52.39
64792;BME280;51226;47.504;19.074;2024-03-17T05:45:01;100636.44;;;12.22;51.63
64792;BME280;51226;47.504;19.074;2024-03-17T05:48:02;100640.44;;;12.12;51.81
64792;BME280;51226;47.504;19.074;2024-03-17T05:51:10;100647.19;;;12.05;51.29
64792;BME280;51226;47.504;19.074;2024-03-17T05:54:12;100653.03;;;11.98;51.47
64792;BME280;51226;47.504;19.074;2024-03-17T05:57:14;100649.06;;;12.34;49.19
64792;BME280;51226;47.504;19.074;2024-03-17T06:00:17;100643.81;;;12.08;49.69
64792;BME280;51226;47.504;19.074;2024-03-17T06:03:19;100657.63;;;12.05;49.26
64792;BME280;51226;47.504;19.074;2024-03-17T06:06:22;100649.47;;;11.96;49.55
64792;BME280;51226;47.504;19.074;2024-03-17T06:09:24;100653.69;;;11.93;49.58
64792;BME280;51226;47.504;19.074;2024-03-17T06:12:26;100652.47;;;12.07;48.95
64792;BME280;51226;47.504;19.074;2024-03-17T06:15:28;100646.94;;;11.98;49.25
64792;BME280;51226;47.504;19.074;2024-03-17T06:18:30;100639.66;;;12.39;47.98
64792;BME280;51226;47.504;19.074;2024-03-17T06:21:32;100633.09;;;12.26;47.92
64792;BME280;51226;47.504;19.074;2024-03-17T06:24:33;100639.88;;;12.21;48.06
64792;BME280;51226;47.504;19.074;2024-03-17T06:27:35;100640.84;;;12.49;47.50
64792;BME280;51226;47.504;19.074;2024-03-17T06:30:37;100642.00;;;12.31;47.89
64792;BME280;51226;47.504;19.074;2024-03-17T06:33:39;100638.81;;;12.40;47.68
64792;BME280;51226;47.504;19.074;2024-03-17T06:36:40;100635.22;;;12.36;48.20
64792;BME280;51226;47.504;19.074;2024-03-17T06:39:45;100639.56;;;12.62;47.36
64792;BME280;51226;47.504;19.074;2024-03-17T06:42:46;100637.91;;;12.39;48.19
64792;BME280;51226;47.504;19.074;2024-03-17T06:45:58;100639.66;;;12.39;48.59
64792;BME280;51226;47.504;19.074;2024-03-17T06:49:00;100644.16;;;12.69;47.75
64792;BME280;51226;47.504;19.074;2024-03-17T06:52:02;100631.44;;;13.07;46.36
64792;BME280;51226;47.504;19.074;2024-03-17T06:55:04;100639.44;;;13.11;46.28
64792;BME280;51226;47.504;19.074;2024-03-17T06:58:06;100637.88;;;13.45;45.03
64792;BME280;51226;47.504;19.074;2024-03-17T07:01:07;100649.09;;;13.41;45.32
64792;BME280;51226;47.504;19.074;2024-03-17T07:04:10;100653.34;;;13.66;44.74
64792;BME280;51226;47.504;19.074;2024-03-17T07:07:12;100640.34;;;13.69;44.73
64792;BME280;51226;47.504;19.074;2024-03-17T07:10:14;100647.63;;;14.10;43.43
64792;BME280;51226;47.504;19.074;2024-03-17T07:13:16;100646.66;;;14.38;43.04
64792;BME280;51226;47.504;19.074;2024-03-17T07:16:18;100643.28;;;14.77;41.89
64792;BME280;51226;47.504;19.074;2024-03-17T07:19:20;100647.63;;;14.75;42.20
64792;BME280;51226;47.504;19.074;2024-03-17T07:22:22;100651.66;;;14.97;42.08
64792;BME280;51226;47.504;19.074;2024-03-17T07:25:27;100632.66;;;15.47;40.47
64792;BME280;51226;47.504;19.074;2024-03-17T07:28:29;100643.91;;;15.80;39.48
64792;BME280;51226;47.504;19.074;2024-03-17T07:31:30;100639.84;;;15.96;39.17
64792;BME280;51226;47.504;19.074;2024-03-17T07:34:33;100630.69;;;16.21;38.72
64792;BME280;51226;47.504;19.074;2024-03-17T07:37:36;100633.63;;;16.38;38.53
64792;BME280;51226;47.504;19.074;2024-03-17T07:40:38;100634.31;;;16.76;38.46
64792;BME280;51226;47.504;19.074;2024-03-17T07:43:39;100641.16;;;17.18;37.15
64792;BME280;51226;47.504;19.074;2024-03-17T07:46:41;100631.69;;;17.31;36.78
64792;BME280;51226;47.504;19.074;2024-03-17T07:49:45;100632.84;;;17.53;37.13
64792;BME280;51226;47.504;19.074;2024-03-17T07:52:48;100643.28;;;18.11;35.27
64792;BME280;51226;47.504;19.074;2024-03-17T07:55:59;100646.41;;;18.59;35.11
64792;BME280;51226;47.504;19.074;2024-03-17T07:59:01;100643.03;;;20.22;31.89
64792;BME280;51226;47.504;19.074;2024-03-17T08:02:06;100624.81;;;24.27;25.65
64792;BME280;51226;47.504;19.074;2024-03-17T08:05:09;100634.97;;;27.18;22.75
64792;BME280;51226;47.504;19.074;2024-03-17T08:08:11;100621.31;;;30.03;18.99
64792;BME280;51226;47.504;19.074;2024-03-17T08:11:13;100625.19;;;32.06;16.87
64792;BME280;51226;47.504;19.074;2024-03-17T08:14:15;100618.44;;;33.41;15.49
64792;BME280;51226;47.504;19.074;2024-03-17T08:17:17;100624.69;;;34.25;15.26
64792;BME280;51226;47.504;19.074;2024-03-17T08:20:19;100632.94;;;35.16;14.65
64792;BME280;51226;47.504;19.074;2024-03-17T08:23:21;100636.41;;;36.06;13.46
64792;BME280;51226;47.504;19.074;2024-03-17T08:26:23;100638.00;;;36.37;12.91
64792;BME280;51226;47.504;19.074;2024-03-17T08:29:25;100632.91;;;35.46;13.09
64792;BME280;51226;47.504;19.074;2024-03-17T08:32:26;100638.78;;;33.14;14.67
64792;BME280;51226;47.504;19.074;2024-03-17T08:35:28;100635.25;;;29.90;16.90
64792;BME280;51226;47.504;19.074;2024-03-17T08:38:31;100642.72;;;27.29;19.56
64792;BME280;51226;47.504;19.074;2024-03-17T08:41:33;100646.03;;;25.87;20.94
64792;BME280;51226;47.504;19.074;2024-03-17T08:44:35;100648.00;;;25.32;21.13
64792;BME280;51226;47.504;19.074;2024-03-17T08:47:37;100662.22;;;24.83;22.08
64792;BME280;51226;47.504;19.074;2024-03-17T08:50:39;100658.13;;;24.59;22.15
64792;BME280;51226;47.504;19.074;2024-03-17T08:53:41;100660.22;;;24.35;22.42
64792;BME280;51226;47.504;19.074;2024-03-17T08:56:43;100643.63;;;24.77;21.49
64792;BME280;51226;47.504;19.074;2024-03-17T08:59:46;100655.50;;;24.57;21.94
64792;BME280;51226;47.504;19.074;2024-03-17T09:02:48;100659.16;;;24.47;22.36
64792;BME280;51226;47.504;19.074;2024-03-17T09:05:49;100661.69;;;24.59;22.08
64792;BME280;51226;47.504;19.074;2024-03-17T09:08:52;100668.66;;;24.68;22.05
64792;BME280;51226;47.504;19.074;2024-03-17T09:11:53;100668.34;;;24.88;21.98
64792;BME280;51226;47.504;19.074;2024-03-17T09:14:55;100679.59;;;25.06;21.90
64792;BME280;51226;47.504;19.074;2024-03-17T09:17:57;100676.66;;;25.23;21.69
64792;BME280;51226;47.504;19.074;2024-03-17T09:24:00;100674.66;;;25.36;21.26
64792;BME280;51226;47.504;19.074;2024-03-17T09:27:04;100678.22;;;25.38;21.47
64792;BME280;51226;47.504;19.074;2024-03-17T09:30:07;100670.44;;;25.70;20.89
64792;BME280;51226;47.504;19.074;2024-03-17T09:33:10;100684.78;;;25.66;21.35
64792;BME280;51226;47.504;19.074;2024-03-17T09:36:12;100680.28;;;25.68;21.41
64792;BME280;51226;47.504;19.074;2024-03-17T09:39:15;100685.97;;;25.97;21.09
64792;BME280;51226;47.504;19.074;2024-03-17T09:42:18;100681.00;;;26.20;20.42
64792;BME280;51226;47.504;19.074;2024-03-17T09:45:20;100679.62;;;26.43;19.99
64792;BME280;51226;47.504;19.074;2024-03-17T09:48:26;100684.66;;;26.57;19.52
64792;BME280;51226;47.504;19.074;2024-03-17T09:51:29;100687.22;;;26.63;19.31
64792;BME280;51226;47.504;19.074;2024-03-17T09:54:33;100681.66;;;26.71;19.01
64792;BME280;51226;47.504;19.074;2024-03-17T09:57:38;100670.59;;;26.47;19.36
64792;BME280;51226;47.504;19.074;2024-03-17T10:00:41;100669.06;;;26.37;19.58
64792;BME280;51226;47.504;19.074;2024-03-17T10:03:44;100662.97;;;26.69;19.27
64792;BME280;51226;47.504;19.074;2024-03-17T10:06:46;100664.66;;;26.75;19.50
64792;BME280;51226;47.504;19.074;2024-03-17T10:09:48;100666.97;;;26.89;19.52
64792;BME280;51226;47.504;19.074;2024-03-17T10:12:50;100652.00;;;27.14;18.48
64792;BME280;51226;47.504;19.074;2024-03-17T10:15:53;100661.47;;;27.29;18.24
64792;BME280;51226;47.504;19.074;2024-03-17T10:19:14;100654.63;;;27.17;18.22
64792;BME280;51226;47.504;19.074;2024-03-17T10:22:16;100652.38;;;27.37;18.33
64792;BME280;51226;47.504;19.074;2024-03-17T10:25:18;100655.84;;;27.40;18.11
64792;BME280;51226;47.504;19.074;2024-03-17T10:28:19;100636.63;;;27.23;17.90
64792;BME280;51226;47.504;19.074;2024-03-17T10:31:22;100645.31;;;27.32;17.95
64792;BME280;51226;47.504;19.074;2024-03-17T10:34:24;100635.72;;;27.24;18.00
64792;BME280;51226;47.504;19.074;2024-03-17T10:37:26;100627.28;;;27.39;18.00
64792;BME280;51226;47.504;19.074;2024-03-17T10:40:29;100643.00;;;27.18;18.01
64792;BME280;51226;47.504;19.074;2024-03-17T10:43:31;100630.25;;;27.28;17.99
64792;BME280;51226;47.504;19.074;2024-03-17T10:46:33;100632.66;;;27.39;17.77
64792;BME280;51226;47.504;19.074;2024-03-17T10:49:35;100626.63;;;27.31;17.73
64792;BME280;51226;47.504;19.074;2024-03-17T10:52:37;100610.59;;;27.28;17.38
64792;BME280;51226;47.504;19.074;2024-03-17T10:55:43;100626.28;;;27.43;16.84
64792;BME280;51226;47.504;19.074;2024-03-17T10:58:46;100629.50;;;27.23;17.04
64792;BME280;51226;47.504;19.074;2024-03-17T11:01:53;100618.44;;;27.01;17.27
64792;BME280;51226;47.504;19.074;2024-03-17T11:04:57;100628.69;;;26.85;17.21
64792;BME280;51226;47.504;19.074;2024-03-17T11:08:00;100629.41;;;26.92;17.36
64792;BME280;51226;47.504;19.074;2024-03-17T11:11:05;100635.69;;;26.91;17.12
64792;BME280;51226;47.504;19.074;2024-03-17T11:14:16;100621.34;;;26.93;17.16
64792;BME280;51226;47.504;19.074;2024-03-17T11:17:18;100632.12;;;26.90;17.24
64792;BME280;51226;47.504;19.074;2024-03-17T11:20:23;100637.84;;;26.37;17.82
64792;BME280;51226;47.504;19.074;2024-03-17T11:23:26;100638.22;;;26.58;17.59
64792;BME280;51226;47.504;19.074;2024-03-17T11:26:33;100629.03;;;26.32;17.96
64792;BME280;51226;47.504;19.074;2024-03-17T11:29:37;100642.44;;;26.31;17.51
64792;BME280;51226;47.504;19.074;2024-03-17T11:32:40;100639.44;;;26.44;17.81
64792;BME280;51226;47.504;19.074;2024-03-17T11:35:42;100632.97;;;26.16;18.00
64792;BME280;51226;47.504;19.074;2024-03-17T11:38:58;100634.38;;;26.34;17.86
64792;BME280;51226;47.504;19.074;2024-03-17T11:42:04;100632.88;;;26.20;18.17
64792;BME280;51226;47.504;19.074;2024-03-17T11:45:12;100638.97;;;26.66;17.40
64792;BME280;51226;47.504;19.074;2024-03-17T11:48:17;100624.41;;;26.40;17.59
64792;BME280;51226;47.504;19.074;2024-03-17T11:51:20;100625.91;;;26.15;18.01
64792;BME280;51226;47.504;19.074;2024-03-17T11:54:32;100619.66;;;26.14;18.28
64792;BME280;51226;47.504;19.074;2024-03-17T11:57:34;100610.88;;;26.07;18.54
64792;BME280;51226;47.504;19.074;2024-03-17T12:00:36;100607.00;;;26.21;18.13
64792;BME280;51226;47.504;19.074;2024-03-17T12:03:38;100600.28;;;26.04;17.91
64792;BME280;51226;47.504;19.074;2024-03-17T12:06:50;100614.28;;;25.74;18.33
64792;BME280;51226;47.504;19.074;2024-03-17T12:09:52;100607.78;;;25.43;18.74
64792;BME280;51226;47.504;19.074;2024-03-17T12:12:55;100611.81;;;25.16;18.90
64792;BME280;51226;47.504;19.074;2024-03-17T12:16:12;100600.88;;;25.31;19.03
64792;BME280;51226;47.504;19.074;2024-03-17T12:19:15;100604.34;;;25.80;18.44
64792;BME280;51226;47.504;19.074;2024-03-17T12:22:18;100597.72;;;25.56;18.34
64792;BME280;51226;47.504;19.074;2024-03-17T12:25:22;100590.63;;;25.55;18.35
64792;BME280;51226;47.504;19.074;2024-03-17T12:28:26;100604.06;;;25.50;18.29
64792;BME280;51226;47.504;19.074;2024-03-17T12:31:28;100589.53;;;25.64;18.22
64792;BME280;51226;47.504;19.074;2024-03-17T12:34:30;100590.47;;;25.63;17.92
64792;BME280;51226;47.504;19.074;2024-03-17T12:37:32;100582.72;;;25.49;18.00
64792;BME280;51226;47.504;19.074;2024-03-17T12:40:35;100587.88;;;25.58;17.88
64792;BME280;51226;47.504;19.074;2024-03-17T12:43:47;100572.53;;;25.24;17.96
64792;BME280;51226;47.504;19.074;2024-03-17T12:46:54;100565.38;;;24.76;18.22
64792;BME280;51226;47.504;19.074;2024-03-17T12:49:56;100567.56;;;24.51;18.67
64792;BME280;51226;47.504;19.074;2024-03-17T12:52:58;100553.75;;;24.81;18.15
64792;BME280;51226;47.504;19.074;2024-03-17T12:56:00;100561.09;;;24.68;18.43
64792;BME280;51226;47.504;19.074;2024-03-17T12:59:20;100547.56;;;24.78;18.24
64792;BME280;51226;47.504;19.074;2024-03-17T13:02:41;100541.16;;;24.87;17.93
64792;BME280;51226;47.504;19.074;2024-03-17T13:05:43;100557.34;;;24.78;17.83
64792;BME280;51226;47.504;19.074;2024-03-17T13:08:48;100549.03;;;24.42;18.28
64792;BME280;51226;47.504;19.074;2024-03-17T13:11:50;100561.00;;;24.18;18.27
64792;BME280;51226;47.504;19.074;2024-03-17T13:14:52;100563.25;;;23.83;17.81
64792;BME280;51226;47.504;19.074;2024-03-17T13:17:54;100562.72;;;23.54;18.58
64792;BME280;51226;47.504;19.074;2024-03-17T13:20:56;100557.03;;;23.10;19.26
64792;BME280;51226;47.504;19.074;2024-03-17T13:23:59;100564.88;;;23.24;19.22
64792;BME280;51226;47.504;19.074;2024-03-17T13:27:01;100559.69;;;23.08;19.49
64792;BME280;51226;47.504;19.074;2024-03-17T13:30:07;100565.56;;;23.38;18.92
64792;BME280;51226;47.504;19.074;2024-03-17T13:33:10;100562.81;;;23.49;18.62
64792;BME280;51226;47.504;19.074;2024-03-17T13:36:13;100546.47;;;23.01;18.77
64792;BME280;51226;47.504;19.074;2024-03-17T13:39:15;100551.97;;;22.84;18.84
64792;BME280;51226;47.504;19.074;2024-03-17T13:42:20;100538.91;;;22.57;19.33
64792;BME280;51226;47.504;19.074;2024-03-17T13:45:23;100541.56;;;22.57;19.39
64792;BME280;51226;47.504;19.074;2024-03-17T13:48:25;100533.81;;;22.30;19.32
64792;BME280;51226;47.504;19.074;2024-03-17T13:51:27;100528.72;;;21.93;19.34
64792;BME280;51226;47.504;19.074;2024-03-17T13:54:29;100529.66;;;21.84;19.78
64792;BME280;51226;47.504;19.074;2024-03-17T13:57:31;100518.09;;;21.91;20.38
64792;BME280;51226;47.504;19.074;2024-03-17T14:00:32;100523.53;;;21.71;21.13
64792;BME280;51226;47.504;19.074;2024-03-17T14:03:39;100512.94;;;21.67;21.43
64792;BME280;51226;47.504;19.074;2024-03-17T14:06:42;100522.53;;;21.92;21.20
64792;BME280;51226;47.504;19.074;2024-03-17T14:09:44;100519.03;;;21.86;21.17
64792;BME280;51226;47.504;19.074;2024-03-17T14:12:45;100516.59;;;21.47;21.53
64792;BME280;51226;47.504;19.074;2024-03-17T14:15:48;100511.47;;;20.82;22.43
64792;BME280;51226;47.504;19.074;2024-03-17T14:18:49;100506.16;;;20.85;22.64
64792;BME280;51226;47.504;19.074;2024-03-17T14:21:52;100500.88;;;20.73;22.43
64792;BME280;51226;47.504;19.074;2024-03-17T14:24:53;100511.50;;;20.30;22.70
64792;BME280;51226;47.504;19.074;2024-03-17T14:27:55;100512.38;;;20.26;22.94
64792;BME280;51226;47.504;19.074;2024-03-17T14:30:57;100500.84;;;19.94;23.27
64792;BME280;51226;47.504;19.074;2024-03-17T14:33:58;100503.50;;;19.80;23.81
64792;BME280;51226;47.504;19.074;2024-03-17T14:37:00;100489.31;;;19.60;24.04
64792;BME280;51226;47.504;19.074;2024-03-17T14:40:04;100490.03;;;19.20;24.82
64792;BME280;51226;47.504;19.074;2024-03-17T14:43:12;100494.44;;;19.17;24.72
64792;BME280;51226;47.504;19.074;2024-03-17T14:46:14;100498.72;;;18.93;24.04
64792;BME280;51226;47.504;19.074;2024-03-17T14:49:18;100500.38;;;18.80;23.89
64792;BME280;51226;47.504;19.074;2024-03-17T14:52:20;100509.06;;;18.64;24.41
64792;BME280;51226;47.504;19.074;2024-03-17T14:55:23;100504.63;;;18.57;24.54
64792;BME280;51226;47.504;19.074;2024-03-17T14:58:25;100505.19;;;18.17;25.05
64792;BME280;51226;47.504;19.074;2024-03-17T15:01:26;100515.34;;;17.80;26.02
64792;BME280;51226;47.504;19.074;2024-03-17T15:04:31;100509.75;;;17.49;26.32
64792;BME280;51226;47.504;19.074;2024-03-17T15:07:33;100504.53;;;17.55;26.50
64792;BME280;51226;47.504;19.074;2024-03-17T15:10:35;100498.75;;;17.14;27.17
64792;BME280;51226;47.504;19.074;2024-03-17T15:13:37;100498.72;;;17.09;27.17
64792;BME280;51226;47.504;19.074;2024-03-17T15:16:39;100505.66;;;17.06;27.40
64792;BME280;51226;47.504;19.074;2024-03-17T15:19:40;100491.37;;;16.87;27.61
64792;BME280;51226;47.504;19.074;2024-03-17T15:22:48;100506.72;;;16.59;28.05
64792;BME280;51226;47.504;19.074;2024-03-17T15:25:50;100504.38;;;16.76;28.12
64792;BME280;51226;47.504;19.074;2024-03-17T15:28:52;100490.19;;;16.67;28.14
64792;BME280;51226;47.504;19.074;2024-03-17T15:31:53;100505.53;;;16.38;28.60
64792;BME280;51226;47.504;19.074;2024-03-17T15:34:56;100497.31;;;16.20;29.18
64792;BME280;51226;47.504;19.074;2024-03-17T15:38:00;100508.72;;;16.17;29.37
64792;BME280;51226;47.504;19.074;2024-03-17T15:41:02;100503.19;;;16.03;29.56
64792;BME280;51226;47.504;19.074;2024-03-17T15:44:04;100507.19;;;15.81;29.87
64792;BME280;51226;47.504;19.074;2024-03-17T15:47:06;100511.22;;;15.64;30.24